Time;durP1;ratioP1;P1;durP2;ratioP2;P2;SDS_P1;SDS_P2;PMS_P1;PMS_P2;Temp;Humidity;BMP_temperature;BMP_pressure;BME280_temperature;BME280_humidity;BME280_pressure;Samples;Min_cycle;Max_cycle;Signal;HPM_P1;HPM_P2
2022/05/01 00:00:47;;;;;;;;;;;14.90;99.90;;;;;;5082811;28;19971;-86
2022/05/01 00:03:31;;;;;;;;;;;14.80;99.90;;;;;;5082552;28;19916;-86
2022/05/01 00:06:00;;;;;;;;;;;14.80;99.90;;;;;;5082225;28;19942;-85
2022/05/01 00:08:25;;;;;;;;;;;14.80;99.90;;;;;;5082918;28;19905;-86
2022/05/01 00:10:51;;;;;;;;;;;14.70;99.90;;;;;;5082887;28;20326;-86
2022/05/01 00:13:17;;;;;;;;;;;14.70;99.90;;;;;;5082990;28;19904;-85
2022/05/01 00:15:42;;;;;;;;;;;14.70;99.90;;;;;;5082572;28;19972;-86
2022/05/01 00:18:08;;;;;;;;;;;14.70;99.90;;;;;;5064980;28;19963;-86
2022/05/01 00:20:34;;;;;;;;;;;14.60;99.90;;;;;;5064563;28;19909;-86
2022/05/01 00:22:59;;;;;;;;;;;14.50;99.90;;;;;;5082084;28;19991;-86
2022/05/01 00:25:25;;;;;;;;;;;14.50;99.90;;;;;;5082503;28;19916;-86
2022/05/01 00:27:51;;;;;;;;;;;14.50;99.90;;;;;;5082814;28;20082;-85
2022/05/01 00:30:16;;;;;;;;;;;14.50;99.90;;;;;;5081888;28;19944;-86
2022/05/01 00:38:10;;;;;;;;;;;14.30;99.90;;;;;;5081994;28;19980;-86
2022/05/01 00:40:36;;;;;;;;;;;14.30;99.90;;;;;;5081539;28;19905;-86
2022/05/01 00:43:05;;;;;;;;;;;14.30;99.90;;;;;;5081982;28;19924;-85
2022/05/01 00:45:31;;;;;;;;;;;14.20;99.90;;;;;;5063932;28;19905;-86
2022/05/01 00:47:56;;;;;;;;;;;14.20;99.90;;;;;;5082480;28;19984;-86
2022/05/01 00:50:22;;;;;;;;;;;14.20;99.90;;;;;;5081944;28;19905;-86
2022/05/01 00:52:47;;;;;;;;;;;14.10;99.90;;;;;;5082184;28;19904;-85
2022/05/01 00:55:13;;;;;;;;;;;14.00;99.90;;;;;;5081524;28;19904;-86
2022/05/01 00:57:39;;;;;;;;;;;14.00;99.90;;;;;;5082150;28;20211;-86
2022/05/01 01:00:05;;;;;;;;;;;13.90;99.90;;;;;;5081828;28;19905;-85
2022/05/01 01:02:31;;;;;;;;;;;13.90;99.90;;;;;;5081744;28;19919;-86
2022/05/01 01:04:57;;;;;;;;;;;13.80;99.90;;;;;;5081827;28;19912;-85
2022/05/01 01:07:25;;;;;;;;;;;13.80;99.90;;;;;;5081717;28;20109;-85
2022/05/01 01:09:51;;;;;;;;;;;13.70;99.90;;;;;;5063975;28;19912;-86
2022/05/01 01:15:08;;;;;;;;;;;13.70;99.90;;;;;;5081848;28;19984;-86
2022/05/01 01:17:36;;;;;;;;;;;13.70;99.90;;;;;;5081034;28;19905;-86
2022/05/01 01:20:07;;;;;;;;;;;13.60;99.90;;;;;;5063341;28;19984;-86
2022/05/01 01:22:33;;;;;;;;;;;13.60;99.90;;;;;;5080960;28;19984;-86
2022/05/01 01:24:58;;;;;;;;;;;13.50;99.90;;;;;;5063429;28;20242;-85
2022/05/01 01:27:24;;;;;;;;;;;13.50;99.90;;;;;;5081375;28;20001;-86
2022/05/01 01:32:35;;;;;;;;;;;13.40;99.90;;;;;;5081402;28;20204;-85
2022/05/01 01:35:01;;;;;;;;;;;13.40;99.90;;;;;;5062753;28;19911;-86
2022/05/01 01:37:28;;;;;;;;;;;13.40;99.90;;;;;;5063963;28;20193;-86
2022/05/01 01:39:54;;;;;;;;;;;13.30;99.90;;;;;;5063465;28;19915;-86
2022/05/01 01:42:20;;;;;;;;;;;13.30;99.90;;;;;;5081658;28;19912;-85
2022/05/01 01:44:46;;;;;;;;;;;13.20;99.90;;;;;;5080736;28;20247;-86
2022/05/01 01:47:13;;;;;;;;;;;13.20;99.90;;;;;;5063789;28;19978;-86
2022/05/01 01:49:39;;;;;;;;;;;13.20;99.90;;;;;;5080845;28;19905;-86
2022/05/01 01:52:05;;;;;;;;;;;13.20;99.90;;;;;;5063183;28;19912;-86
2022/05/01 01:54:30;;;;;;;;;;;13.10;99.90;;;;;;5081315;28;19963;-86
2022/05/01 01:56:56;;;;;;;;;;;13.10;99.90;;;;;;5063868;28;19911;-86
2022/05/01 01:59:22;;;;;;;;;;;13.10;99.90;;;;;;5081571;28;19912;-86
2022/05/01 02:01:48;;;;;;;;;;;13.10;99.90;;;;;;5062458;28;19920;-86
2022/05/01 02:04:14;;;;;;;;;;;13.10;99.90;;;;;;5080086;28;19941;-86
2022/05/01 02:06:39;;;;;;;;;;;13.10;99.90;;;;;;5081307;28;20207;-86
2022/05/01 02:09:07;;;;;;;;;;;13.00;99.90;;;;;;5081143;28;20279;-85
2022/05/01 02:11:36;;;;;;;;;;;13.00;99.90;;;;;;5081356;28;19968;-86
2022/05/01 02:14:02;;;;;;;;;;;12.90;99.90;;;;;;5065896;28;20208;-86
2022/05/01 02:16:29;;;;;;;;;;;12.90;99.90;;;;;;5085155;28;19916;-86
2022/05/01 02:18:55;;;;;;;;;;;13.00;99.90;;;;;;5066777;28;19911;-86
2022/05/01 02:21:36;;;;;;;;;;;13.00;99.90;;;;;;5084266;28;20112;-86
2022/05/01 02:24:09;;;;;;;;;;;12.90;99.90;;;;;;5066785;28;19908;-85
2022/05/01 02:26:37;;;;;;;;;;;13.00;99.90;;;;;;5066768;28;19916;-86
2022/05/01 02:29:09;;;;;;;;;;;13.00;99.90;;;;;;5084817;28;19912;-86
2022/05/01 02:31:36;;;;;;;;;;;13.00;99.90;;;;;;5084971;28;19904;-85
2022/05/01 02:34:01;;;;;;;;;;;13.00;99.90;;;;;;5084458;28;19904;-86
2022/05/01 02:36:27;;;;;;;;;;;13.00;99.90;;;;;;5084193;28;19904;-86
2022/05/01 02:38:52;;;;;;;;;;;13.00;99.90;;;;;;5067254;28;19971;-86
2022/05/01 02:41:19;;;;;;;;;;;13.00;99.90;;;;;;5084473;28;19911;-86
2022/05/01 02:43:44;;;;;;;;;;;13.00;99.90;;;;;;5066372;28;20112;-86
2022/05/01 02:46:10;;;;;;;;;;;13.00;99.90;;;;;;5065776;28;19913;-86
2022/05/01 02:48:35;;;;;;;;;;;13.00;99.90;;;;;;5083424;28;19951;-86
2022/05/01 02:51:04;;;;;;;;;;;13.00;99.90;;;;;;5082920;28;19904;-86
2022/05/01 02:53:30;;;;;;;;;;;13.00;99.90;;;;;;5065959;28;19912;-86
2022/05/01 02:55:56;;;;;;;;;;;13.00;99.90;;;;;;5084463;28;19972;-86
2022/05/01 02:58:21;;;;;;;;;;;13.10;99.90;;;;;;5084581;28;19911;-85
2022/05/01 03:00:47;;;;;;;;;;;13.10;99.90;;;;;;5065742;28;19919;-86
2022/05/01 03:03:13;;;;;;;;;;;13.00;99.90;;;;;;5065804;28;19980;-86
2022/05/01 03:05:38;;;;;;;;;;;13.00;99.90;;;;;;5083586;28;19991;-86
2022/05/01 03:08:04;;;;;;;;;;;13.00;99.90;;;;;;5066327;28;19979;-86
2022/05/01 03:10:29;;;;;;;;;;;13.10;99.90;;;;;;5083707;28;19905;-86
2022/05/01 03:12:55;;;;;;;;;;;13.00;99.90;;;;;;5065988;28;19904;-85
2022/05/01 03:15:24;;;;;;;;;;;13.00;99.90;;;;;;5084019;28;19910;-86
2022/05/01 03:23:18;;;;;;;;;;;13.00;99.90;;;;;;5083919;28;19919;-86
2022/05/01 03:25:43;;;;;;;;;;;13.00;99.90;;;;;;5081783;28;19916;-85
2022/05/01 03:28:09;;;;;;;;;;;12.90;99.90;;;;;;5065582;28;19911;-85
2022/05/01 03:30:35;;;;;;;;;;;12.90;99.90;;;;;;5065662;28;19904;-85
2022/05/01 03:33:04;;;;;;;;;;;12.90;99.90;;;;;;5083727;28;20193;-86
2022/05/01 03:35:29;;;;;;;;;;;13.00;99.90;;;;;;5082866;28;20185;-86
2022/05/01 03:37:55;;;;;;;;;;;12.90;99.90;;;;;;5065219;28;19905;-86
2022/05/01 03:40:21;;;;;;;;;;;12.90;99.90;;;;;;5065683;28;20064;-86
2022/05/01 03:42:46;;;;;;;;;;;12.90;99.90;;;;;;5083509;28;20086;-85
2022/05/01 03:45:12;;;;;;;;;;;12.90;99.90;;;;;;5083313;28;19989;-86
2022/05/01 03:47:37;;;;;;;;;;;12.90;99.90;;;;;;5083275;28;19912;-86
2022/05/01 03:50:04;;;;;;;;;;;12.90;99.90;;;;;;5083005;28;20069;-86
2022/05/01 03:52:29;;;;;;;;;;;13.00;99.90;;;;;;5064472;28;19927;-86
2022/05/01 03:54:55;;;;;;;;;;;12.90;99.90;;;;;;5064813;28;20244;-86
2022/05/01 03:57:21;;;;;;;;;;;12.90;99.90;;;;;;5065179;28;19911;-86
2022/05/01 03:59:46;;;;;;;;;;;12.90;99.90;;;;;;5065002;28;20104;-86
2022/05/01 04:02:14;;;;;;;;;;;12.90;99.90;;;;;;5064898;28;20263;-86
2022/05/01 04:04:40;;;;;;;;;;;12.90;99.90;;;;;;5082297;28;19987;-86
2022/05/01 04:07:05;;;;;;;;;;;12.80;99.90;;;;;;5082690;28;20181;-86
2022/05/01 04:09:31;;;;;;;;;;;12.90;99.90;;;;;;5062781;28;19908;-86
2022/05/01 04:11:56;;;;;;;;;;;12.80;99.90;;;;;;5054103;28;19909;-86
2022/05/01 04:14:22;;;;;;;;;;;12.80;99.90;;;;;;5053496;28;19915;-86
2022/05/01 04:16:47;;;;;;;;;;;12.80;99.90;;;;;;5071333;28;20400;-90
2022/05/01 04:19:13;;;;;;;;;;;12.80;99.90;;;;;;5071137;28;20365;-85
2022/05/01 04:21:39;;;;;;;;;;;12.90;99.90;;;;;;5053375;28;19920;-86
2022/05/01 04:24:05;;;;;;;;;;;12.90;99.90;;;;;;5071378;28;19909;-86
2022/05/01 04:26:30;;;;;;;;;;;12.90;99.90;;;;;;5071252;28;19925;-90
2022/05/01 04:31:40;;;;;;;;;;;12.80;99.90;;;;;;5071849;28;20398;-86
2022/05/01 04:34:06;;;;;;;;;;;12.80;99.90;;;;;;5052929;28;19916;-86
2022/05/01 04:36:32;;;;;;;;;;;12.90;99.90;;;;;;5052923;28;19909;-85
2022/05/01 04:38:57;;;;;;;;;;;12.80;99.90;;;;;;5053120;28;19931;-86
2022/05/01 04:41:23;;;;;;;;;;;12.80;99.90;;;;;;5053062;28;20376;-86
2022/05/01 04:43:48;;;;;;;;;;;12.80;99.90;;;;;;5071091;28;19908;-85
2022/05/01 04:46:14;;;;;;;;;;;12.70;99.90;;;;;;5053174;28;19912;-87
2022/05/01 04:48:39;;;;;;;;;;;12.70;99.90;;;;;;5052847;28;19909;-87
2022/05/01 04:51:05;;;;;;;;;;;12.70;99.90;;;;;;5053124;28;19915;-86
2022/05/01 04:53:30;;;;;;;;;;;12.70;99.90;;;;;;5052878;28;19970;-86
2022/05/01 04:57:04;;;;;;;;;;;12.70;99.90;;;;;;5053027;28;19944;-89
2022/05/01 04:58:41;;;;;;;;;;;12.80;99.90;;;;;;5070702;28;19908;-90
2022/05/01 05:01:07;;;;;;;;;;;12.70;99.90;;;;;;5052836;28;19917;-87
2022/05/01 05:03:32;;;;;;;;;;;12.70;99.90;;;;;;5070347;28;20289;-86
2022/05/01 05:05:58;;;;;;;;;;;12.70;99.90;;;;;;5070752;28;20415;-89
2022/05/01 05:11:08;;;;;;;;;;;12.70;99.90;;;;;;5070878;28;19915;-87
2022/05/01 05:13:35;;;;;;;;;;;12.70;99.90;;;;;;5070701;28;19908;-85
2022/05/01 05:16:01;;;;;;;;;;;12.70;99.90;;;;;;5052723;28;20308;-88
2022/05/01 05:18:27;;;;;;;;;;;12.70;99.90;;;;;;5070786;28;19908;-86
2022/05/01 05:20:52;;;;;;;;;;;12.80;99.90;;;;;;5052795;28;19962;-86
2022/05/01 05:23:18;;;;;;;;;;;12.70;99.90;;;;;;5052394;28;19921;-85
2022/05/01 05:25:43;;;;;;;;;;;12.70;99.90;;;;;;5052522;28;19920;-86
2022/05/01 05:28:09;;;;;;;;;;;12.70;99.90;;;;;;5071007;28;19908;-86
2022/05/01 05:30:35;;;;;;;;;;;12.70;99.90;;;;;;5070684;28;19913;-90
2022/05/01 05:33:02;;;;;;;;;;;12.80;99.90;;;;;;5052724;28;19915;-86
2022/05/01 05:35:28;;;;;;;;;;;12.80;99.90;;;;;;5070264;28;19959;-85
2022/05/01 05:37:54;;;;;;;;;;;12.90;99.90;;;;;;5070428;28;19944;-91
2022/05/01 05:40:19;;;;;;;;;;;12.90;99.90;;;;;;5070468;28;19909;-86
2022/05/01 05:42:45;;;;;;;;;;;12.80;99.90;;;;;;5052527;28;19916;-86
2022/05/01 05:45:12;;;;;;;;;;;12.80;99.90;;;;;;5070171;28;19908;-86
2022/05/01 05:47:37;;;;;;;;;;;12.90;99.90;;;;;;5053242;28;19913;-86
2022/05/01 05:50:03;;;;;;;;;;;12.90;99.90;;;;;;5074082;28;19908;-86
2022/05/01 05:52:28;;;;;;;;;;;12.90;99.90;;;;;;5074374;28;19909;-86
2022/05/01 05:54:54;;;;;;;;;;;12.90;99.90;;;;;;5056692;28;19963;-86
2022/05/01 05:57:20;;;;;;;;;;;12.90;99.90;;;;;;5074710;28;20353;-87
2022/05/01 05:59:45;;;;;;;;;;;13.00;99.90;;;;;;5074777;28;20499;-86
2022/05/01 06:02:11;;;;;;;;;;;13.10;99.90;;;;;;5056242;28;20037;-86
2022/05/01 06:04:37;;;;;;;;;;;13.10;99.90;;;;;;5073693;28;19913;-85
2022/05/01 06:07:03;;;;;;;;;;;13.10;99.90;;;;;;5074214;28;19915;-90
2022/05/01 06:09:31;;;;;;;;;;;13.20;99.90;;;;;;5074068;28;20003;-85
2022/05/01 06:11:56;;;;;;;;;;;13.20;99.90;;;;;;5074276;28;19909;-86
2022/05/01 06:14:22;;;;;;;;;;;13.10;99.90;;;;;;5074134;28;19969;-86
2022/05/01 06:16:47;;;;;;;;;;;13.10;99.90;;;;;;5056152;28;19916;-85
2022/05/01 06:19:13;;;;;;;;;;;13.20;99.90;;;;;;5073390;28;19909;-89
2022/05/01 06:21:38;;;;;;;;;;;13.30;99.90;;;;;;5073490;28;20073;-89
2022/05/01 06:24:04;;;;;;;;;;;13.40;99.90;;;;;;5073763;28;19967;-86
2022/05/01 06:26:29;;;;;;;;;;;13.50;99.90;;;;;;5073930;28;19928;-86
2022/05/01 06:28:55;;;;;;;;;;;13.40;99.90;;;;;;5073728;28;20262;-86
2022/05/01 06:31:20;;;;;;;;;;;13.50;99.90;;;;;;5073793;28;20403;-86
2022/05/01 06:33:46;;;;;;;;;;;13.50;99.90;;;;;;5055679;28;19908;-86
2022/05/01 06:36:13;;;;;;;;;;;13.50;99.90;;;;;;5055538;28;19912;-88
2022/05/01 06:38:38;;;;;;;;;;;13.50;99.90;;;;;;5073438;28;19916;-89
2022/05/01 06:41:04;;;;;;;;;;;13.60;99.90;;;;;;5073601;28;20257;-86
2022/05/01 06:43:30;;;;;;;;;;;13.60;99.90;;;;;;5074016;28;19922;-85
2022/05/01 06:45:56;;;;;;;;;;;13.50;99.90;;;;;;5055681;28;19966;-90
2022/05/01 06:48:21;;;;;;;;;;;13.60;99.90;;;;;;5055429;28;20545;-87
2022/05/01 06:50:47;;;;;;;;;;;13.70;99.90;;;;;;5073445;28;19915;-86
2022/05/01 06:53:13;;;;;;;;;;;13.90;99.90;;;;;;5073407;28;19908;-85
2022/05/01 06:55:38;;;;;;;;;;;14.00;99.90;;;;;;5073432;28;19951;-87
2022/05/01 06:58:04;;;;;;;;;;;14.00;99.90;;;;;;5073335;28;19916;-85
2022/05/01 07:00:30;;;;;;;;;;;14.10;99.90;;;;;;5054952;28;19908;-86
2022/05/01 07:02:55;;;;;;;;;;;14.00;99.90;;;;;;5054970;28;20016;-86
2022/05/01 07:05:21;;;;;;;;;;;14.00;99.90;;;;;;5072613;28;19909;-86
2022/05/01 07:07:48;;;;;;;;;;;14.00;99.90;;;;;;5073043;28;19915;-86
2022/05/01 07:10:14;;;;;;;;;;;14.20;99.90;;;;;;5067448;28;19913;-86
2022/05/01 07:12:40;;;;;;;;;;;14.40;99.90;;;;;;5073217;28;19909;-87
2022/05/01 07:15:05;;;;;;;;;;;14.30;99.90;;;;;;5055079;28;19912;-85
2022/05/01 07:17:32;;;;;;;;;;;14.40;99.90;;;;;;5072838;28;19916;-88
2022/05/01 07:19:57;;;;;;;;;;;14.40;99.90;;;;;;5072432;28;19995;-85
2022/05/01 07:22:23;;;;;;;;;;;14.50;99.90;;;;;;5072590;28;20016;-86
2022/05/01 07:24:48;;;;;;;;;;;14.70;99.90;;;;;;5072746;28;20012;-86
2022/05/01 07:27:14;;;;;;;;;;;14.70;99.90;;;;;;5073531;28;19920;-86
2022/05/01 07:29:40;;;;;;;;;;;14.70;99.90;;;;;;5072501;28;19915;-87
2022/05/01 07:32:05;;;;;;;;;;;14.60;99.90;;;;;;5072411;28;20004;-86
2022/05/01 07:34:31;;;;;;;;;;;14.70;99.90;;;;;;5071400;28;19979;-86
2022/05/01 07:36:56;;;;;;;;;;;14.70;99.90;;;;;;5071812;28;19909;-87
2022/05/01 07:39:22;;;;;;;;;;;14.70;99.90;;;;;;5071570;28;19915;-86
2022/05/01 07:41:48;;;;;;;;;;;14.90;99.90;;;;;;5070009;28;19916;-86
2022/05/01 07:44:13;;;;;;;;;;;14.90;99.90;;;;;;5071419;28;20053;-86
2022/05/01 07:46:40;;;;;;;;;;;15.00;99.90;;;;;;5071412;28;19909;-86
2022/05/01 07:49:06;;;;;;;;;;;15.00;99.90;;;;;;5071480;28;19908;-86
2022/05/01 07:51:32;;;;;;;;;;;15.10;99.90;;;;;;5071517;28;20406;-86
2022/05/01 07:53:58;;;;;;;;;;;15.00;99.90;;;;;;5071477;28;19991;-86
2022/05/01 07:56:27;;;;;;;;;;;15.10;99.90;;;;;;5071516;28;19920;-86
2022/05/01 07:58:52;;;;;;;;;;;15.20;99.90;;;;;;5053069;28;19908;-86
2022/05/01 08:01:18;;;;;;;;;;;15.30;99.90;;;;;;5070906;28;20284;-86
2022/05/01 08:06:28;;;;;;;;;;;15.50;99.90;;;;;;5073267;28;19919;-86
2022/05/01 08:08:53;;;;;;;;;;;15.70;99.90;;;;;;5076231;28;19932;-88
2022/05/01 08:11:19;;;;;;;;;;;15.70;99.90;;;;;;5082055;28;19950;-86
2022/05/01 08:13:44;;;;;;;;;;;15.90;99.90;;;;;;5080898;28;19999;-86
2022/05/01 08:16:10;;;;;;;;;;;16.00;99.90;;;;;;5070998;28;20001;-87
2022/05/01 08:21:21;;;;;;;;;;;16.40;99.80;;;;;;5071064;28;19953;-87
2022/05/01 08:23:47;;;;;;;;;;;16.50;99.70;;;;;;5072251;28;19912;-86
2022/05/01 08:26:13;;;;;;;;;;;16.60;99.60;;;;;;5074145;28;19927;-86
2022/05/01 08:28:42;;;;;;;;;;;16.80;99.20;;;;;;5071573;28;19915;-86
2022/05/01 08:31:08;;;;;;;;;;;16.90;98.80;;;;;;5077032;28;19935;-87
2022/05/01 08:33:34;;;;;;;;;;;17.10;99.00;;;;;;5070682;28;19920;-87
2022/05/01 08:36:02;;;;;;;;;;;17.20;98.80;;;;;;5070937;28;20319;-86
2022/05/01 08:38:28;;;;;;;;;;;17.40;98.30;;;;;;5070698;28;19923;-86
2022/05/01 08:40:53;;;;;;;;;;;17.50;98.70;;;;;;5070219;28;19909;-86
2022/05/01 08:43:19;;;;;;;;;;;17.60;98.90;;;;;;5070287;28;20301;-86
2022/05/01 08:45:57;;;;;;;;;;;17.60;98.30;;;;;;5070418;28;19912;-86
2022/05/01 08:48:26;;;;;;;;;;;17.60;97.90;;;;;;5069931;28;19921;-87
2022/05/01 08:50:52;;;;;;;;;;;17.70;98.30;;;;;;5070169;28;19909;-87
2022/05/01 08:53:17;;;;;;;;;;;17.60;97.50;;;;;;5069943;28;20340;-87
2022/05/01 08:55:45;;;;;;;;;;;17.80;98.10;;;;;;5052273;28;20007;-87
2022/05/01 08:58:11;;;;;;;;;;;17.90;98.20;;;;;;5052114;28;19966;-86
2022/05/01 09:00:37;;;;;;;;;;;18.20;97.60;;;;;;5052573;28;19908;-88
2022/05/01 09:03:04;;;;;;;;;;;18.30;97.70;;;;;;5069934;28;19963;-88
2022/05/01 09:05:30;;;;;;;;;;;18.40;96.80;;;;;;5052525;28;19946;-86
2022/05/01 09:07:56;;;;;;;;;;;18.50;96.50;;;;;;5070286;28;19909;-86
2022/05/01 09:10:25;;;;;;;;;;;18.40;97.00;;;;;;5070122;28;20062;-87
2022/05/01 09:12:53;;;;;;;;;;;18.40;96.90;;;;;;5070059;28;20084;-88
2022/05/01 09:15:40;;;;;;;;;;;18.40;96.40;;;;;;5070455;28;19919;-89
2022/05/01 09:18:14;;;;;;;;;;;18.60;96.50;;;;;;5052072;28;19908;-85
2022/05/01 09:20:58;;;;;;;;;;;18.80;96.20;;;;;;5070754;28;20163;-85
2022/05/01 09:23:39;;;;;;;;;;;18.70;96.10;;;;;;5069575;28;19917;-85
2022/05/01 09:26:06;;;;;;;;;;;18.80;96.00;;;;;;5070206;28;19927;-85
2022/05/01 09:28:32;;;;;;;;;;;18.90;96.50;;;;;;5070290;28;19915;-86
2022/05/01 09:30:58;;;;;;;;;;;19.10;96.40;;;;;;5070207;28;19999;-85
2022/05/01 09:33:24;;;;;;;;;;;19.30;96.40;;;;;;5069913;28;20047;-85
2022/05/01 09:35:50;;;;;;;;;;;19.40;96.20;;;;;;5070464;28;20277;-85
2022/05/01 09:38:17;;;;;;;;;;;19.50;95.70;;;;;;5070400;28;19908;-85
2022/05/01 09:40:43;;;;;;;;;;;19.60;96.50;;;;;;5070431;28;19909;-86
2022/05/01 09:43:09;;;;;;;;;;;19.70;95.50;;;;;;5070249;28;19923;-85
2022/05/01 09:45:35;;;;;;;;;;;19.80;95.80;;;;;;5070230;28;19913;-85
2022/05/01 09:48:00;;;;;;;;;;;20.00;95.80;;;;;;5069809;28;19916;-86
2022/05/01 09:50:39;;;;;;;;;;;20.20;95.10;;;;;;5070423;28;19942;-86
2022/05/01 09:53:04;;;;;;;;;;;20.30;94.70;;;;;;5070132;28;19917;-86
2022/05/01 09:55:30;;;;;;;;;;;20.40;94.30;;;;;;5052136;28;19908;-86
2022/05/01 09:58:03;;;;;;;;;;;20.60;94.40;;;;;;5070172;28;19912;-86
2022/05/01 10:00:42;;;;;;;;;;;21.00;94.30;;;;;;5070016;28;20007;-86
2022/05/01 10:03:21;;;;;;;;;;;21.10;93.90;;;;;;5069930;28;20328;-85
2022/05/01 10:05:48;;;;;;;;;;;21.20;93.50;;;;;;5069964;28;19916;-86
2022/05/01 10:08:13;;;;;;;;;;;21.20;93.10;;;;;;5051856;28;20279;-86
2022/05/01 10:10:40;;;;;;;;;;;21.20;93.20;;;;;;5069765;28;20003;-85
2022/05/01 10:13:06;;;;;;;;;;;21.20;92.50;;;;;;5070122;28;20285;-85
2022/05/01 10:15:33;;;;;;;;;;;21.40;92.50;;;;;;5070072;28;19909;-86
2022/05/01 10:17:58;;;;;;;;;;;21.40;92.50;;;;;;5069606;28;20385;-85
2022/05/01 10:20:24;;;;;;;;;;;21.50;92.10;;;;;;5068662;28;19963;-85
2022/05/01 10:22:50;;;;;;;;;;;21.60;91.90;;;;;;5069670;28;19950;-85
2022/05/01 10:25:16;;;;;;;;;;;21.70;91.90;;;;;;5069973;28;19955;-86
2022/05/01 10:27:47;;;;;;;;;;;21.90;92.10;;;;;;5069627;28;19928;-86
2022/05/01 10:33:31;;;;;;;;;;;22.10;91.30;;;;;;4997075;28;19910;-86
2022/05/01 10:36:09;;;;;;;;;;;22.20;90.60;;;;;;5073590;28;20288;-86
2022/05/01 10:38:53;;;;;;;;;;;22.10;90.00;;;;;;5073565;28;20126;-85
2022/05/01 10:41:19;;;;;;;;;;;21.90;89.70;;;;;;5073050;28;20356;-86
2022/05/01 10:43:55;;;;;;;;;;;21.80;89.40;;;;;;5072823;28;19970;-86
2022/05/01 10:46:20;;;;;;;;;;;21.80;88.30;;;;;;5073249;28;20022;-85
2022/05/01 10:48:46;;;;;;;;;;;21.70;89.00;;;;;;5073029;28;20376;-85
2022/05/01 10:51:30;;;;;;;;;;;21.80;89.60;;;;;;5073205;28;19915;-86
2022/05/01 10:54:14;;;;;;;;;;;21.70;87.60;;;;;;5073243;28;19936;-84
2022/05/01 10:56:43;;;;;;;;;;;21.80;88.50;;;;;;5073269;28;19908;-86
2022/05/01 10:59:27;;;;;;;;;;;21.80;87.50;;;;;;5073115;28;19912;-86
2022/05/01 11:01:53;;;;;;;;;;;21.70;85.60;;;;;;5073078;28;20300;-85
2022/05/01 11:04:21;;;;;;;;;;;21.90;85.00;;;;;;5072754;28;19988;-86
2022/05/01 11:06:49;;;;;;;;;;;21.70;87.30;;;;;;5073056;28;19915;-85
2022/05/01 11:09:17;;;;;;;;;;;21.80;87.40;;;;;;5073058;28;20276;-85
2022/05/01 11:11:42;;;;;;;;;;;21.90;85.90;;;;;;5073139;28;20402;-85
2022/05/01 11:14:08;;;;;;;;;;;22.30;87.60;;;;;;5073005;28;19963;-86
2022/05/01 11:16:49;;;;;;;;;;;22.50;87.10;;;;;;5066291;28;20003;-85
2022/05/01 11:19:15;;;;;;;;;;;22.70;87.00;;;;;;5072545;28;19916;-86
2022/05/01 11:21:40;;;;;;;;;;;22.70;85.70;;;;;;5072640;28;19904;-85
2022/05/01 11:24:08;;;;;;;;;;;22.60;85.20;;;;;;5072600;28;19980;-86
2022/05/01 11:26:33;;;;;;;;;;;22.70;85.80;;;;;;5072854;28;19928;-86
2022/05/01 11:29:10;;;;;;;;;;;22.90;83.10;;;;;;5072695;28;19908;-84
2022/05/01 11:31:36;;;;;;;;;;;23.00;80.20;;;;;;5072494;28;19917;-85
2022/05/01 11:34:16;;;;;;;;;;;22.60;79.60;;;;;;5072211;28;19913;-85
2022/05/01 11:37:03;;;;;;;;;;;22.40;81.30;;;;;;5072701;28;19995;-85
2022/05/01 11:39:50;;;;;;;;;;;22.20;82.30;;;;;;5072349;28;19912;-88
2022/05/01 11:42:29;;;;;;;;;;;22.30;84.80;;;;;;5071968;28;19926;-86
2022/05/01 11:44:56;;;;;;;;;;;22.40;84.10;;;;;;5071383;28;19956;-86
2022/05/01 11:47:22;;;;;;;;;;;22.50;82.30;;;;;;5071519;28;20355;-89
2022/05/01 11:49:50;;;;;;;;;;;22.80;81.70;;;;;;5054962;28;19997;-87
2022/05/01 11:52:16;;;;;;;;;;;22.70;81.70;;;;;;5052342;28;19909;-86
2022/05/01 11:54:55;;;;;;;;;;;22.70;83.10;;;;;;5054744;28;19955;-87
2022/05/01 12:03:11;;;;;;;;;;;23.60;80.20;;;;;;4968534;28;19922;-88
2022/05/01 12:05:46;;;;;;;;;;;23.40;79.70;;;;;;5033944;28;19908;-87
2022/05/01 12:08:12;;;;;;;;;;;23.40;78.30;;;;;;5071125;28;20002;-87
2022/05/01 12:10:44;;;;;;;;;;;23.60;78.00;;;;;;5070170;28;19909;-85
2022/05/01 12:13:19;;;;;;;;;;;23.60;79.60;;;;;;5070828;28;19908;-87
2022/05/01 12:15:45;;;;;;;;;;;23.60;76.20;;;;;;5046339;28;19982;-88
2022/05/01 12:18:10;;;;;;;;;;;23.50;80.10;;;;;;5070753;28;20402;-88
2022/05/01 12:20:36;;;;;;;;;;;23.40;79.80;;;;;;5053169;28;19916;-88
2022/05/01 12:23:01;;;;;;;;;;;23.40;81.80;;;;;;5053181;28;19962;-87
2022/05/01 12:25:27;;;;;;;;;;;23.50;81.70;;;;;;5071174;28;19920;-86
2022/05/01 12:27:53;;;;;;;;;;;23.60;80.40;;;;;;5053354;28;19915;-87
2022/05/01 12:30:21;;;;;;;;;;;23.90;77.90;;;;;;5071293;28;19908;-87
2022/05/01 12:32:53;;;;;;;;;;;23.40;77.90;;;;;;5052871;28;19915;-87
2022/05/01 12:35:19;;;;;;;;;;;23.30;79.90;;;;;;5053383;28;19969;-87
2022/05/01 12:37:47;;;;;;;;;;;23.30;79.90;;;;;;5071350;28;20330;-87
2022/05/01 12:40:13;;;;;;;;;;;23.10;79.30;;;;;;5070844;28;19992;-87
2022/05/01 12:45:34;;;;;;;;;;;22.50;78.80;;;;;;5071346;28;19935;-87
2022/05/01 12:48:01;;;;;;;;;;;22.70;77.90;;;;;;5070936;28;20324;-87
2022/05/01 12:50:27;;;;;;;;;;;23.20;78.80;;;;;;5070996;28;19916;-87
2022/05/01 12:52:54;;;;;;;;;;;23.60;77.20;;;;;;5070927;28;19915;-87
2022/05/01 12:55:21;;;;;;;;;;;24.20;76.40;;;;;;5070842;28;19919;-87
2022/05/01 12:57:51;;;;;;;;;;;24.20;76.00;;;;;;5070420;28;19915;-87
2022/05/01 13:00:30;;;;;;;;;;;24.20;74.20;;;;;;5070617;28;19909;-87
2022/05/01 13:03:15;;;;;;;;;;;24.50;73.90;;;;;;5070586;28;19948;-87
2022/05/01 13:05:43;;;;;;;;;;;24.80;74.80;;;;;;5052641;28;19909;-87
2022/05/01 13:08:15;;;;;;;;;;;25.20;73.10;;;;;;5070632;28;20365;-87
2022/05/01 13:10:41;;;;;;;;;;;25.00;71.40;;;;;;5070761;28;19908;-87
2022/05/01 13:13:06;;;;;;;;;;;25.10;72.80;;;;;;5070287;28;20277;-86
2022/05/01 13:15:36;;;;;;;;;;;25.20;72.60;;;;;;5070155;28;19971;-87
2022/05/01 13:18:01;;;;;;;;;;;25.10;71.50;;;;;;5052463;28;20307;-87
2022/05/01 13:20:27;;;;;;;;;;;25.20;71.30;;;;;;5052408;28;19909;-87
2022/05/01 13:22:52;;;;;;;;;;;25.20;71.20;;;;;;5070157;28;19964;-87
2022/05/01 13:25:18;;;;;;;;;;;25.20;70.20;;;;;;5052211;28;19912;-86
2022/05/01 13:27:43;;;;;;;;;;;25.10;69.20;;;;;;5070443;28;19916;-87
2022/05/01 13:30:09;;;;;;;;;;;25.00;69.30;;;;;;5070767;28;19909;-87
2022/05/01 13:32:35;;;;;;;;;;;25.00;69.90;;;;;;5070254;28;19912;-86
2022/05/01 13:35:00;;;;;;;;;;;25.40;70.20;;;;;;5069971;28;20047;-87
2022/05/01 13:37:26;;;;;;;;;;;25.90;69.90;;;;;;5070321;28;19908;-87
2022/05/01 13:45:20;;;;;;;;;;;27.60;67.60;;;;;;5070427;28;19915;-87
2022/05/01 13:47:48;;;;;;;;;;;27.20;66.00;;;;;;5051967;28;19909;-87
2022/05/01 13:50:13;;;;;;;;;;;26.90;65.20;;;;;;5070207;28;19927;-86
2022/05/01 13:52:39;;;;;;;;;;;27.30;67.90;;;;;;5070101;28;20297;-87
2022/05/01 13:55:04;;;;;;;;;;;27.80;66.60;;;;;;5051760;28;19915;-87
2022/05/01 13:57:31;;;;;;;;;;;28.60;65.60;;;;;;5070354;28;19909;-87
2022/05/01 13:59:57;;;;;;;;;;;29.20;65.80;;;;;;5069864;28;19966;-87
2022/05/01 14:02:22;;;;;;;;;;;30.00;64.20;;;;;;5069554;28;19955;-87
2022/05/01 14:04:48;;;;;;;;;;;30.90;61.40;;;;;;5069460;28;20388;-87
2022/05/01 14:07:17;;;;;;;;;;;32.10;61.80;;;;;;5069965;28;19909;-87
2022/05/01 14:09:42;;;;;;;;;;;33.40;60.60;;;;;;5072422;28;19916;-87
2022/05/01 14:12:09;;;;;;;;;;;33.60;60.10;;;;;;5055780;28;19912;-87
2022/05/01 14:14:34;;;;;;;;;;;35.10;58.10;;;;;;5055850;28;19909;-87
2022/05/01 14:17:00;;;;;;;;;;;35.40;56.60;;;;;;5073959;28;19914;-87
2022/05/01 14:19:27;;;;;;;;;;;35.10;55.00;;;;;;5073542;28;20360;-87
2022/05/01 14:21:55;;;;;;;;;;;35.40;54.90;;;;;;5055978;28;20388;-87
2022/05/01 14:24:21;;;;;;;;;;;36.40;53.60;;;;;;5055394;28;20288;-87
2022/05/01 14:26:47;;;;;;;;;;;37.10;52.80;;;;;;5055365;28;19921;-87
2022/05/01 14:29:12;;;;;;;;;;;37.70;52.40;;;;;;5073492;28;19915;-87
2022/05/01 14:31:38;;;;;;;;;;;36.70;50.40;;;;;;5073622;28;19908;-87
2022/05/01 14:34:05;;;;;;;;;;;37.60;51.20;;;;;;5055066;28;20700;-87
2022/05/01 14:36:35;;;;;;;;;;;37.70;50.10;;;;;;5073453;28;20293;-87
2022/05/01 14:39:05;;;;;;;;;;;38.40;48.80;;;;;;5073370;28;19947;-87
2022/05/01 14:41:44;;;;;;;;;;;39.20;48.90;;;;;;5055427;28;19916;-88
2022/05/01 14:44:11;;;;;;;;;;;38.90;48.80;;;;;;5055211;28;19916;-87
2022/05/01 14:46:56;;;;;;;;;;;37.60;47.20;;;;;;5073187;28;20377;-87
2022/05/01 14:49:37;;;;;;;;;;;36.60;47.60;;;;;;5055165;28;20383;-87
2022/05/01 14:52:06;;;;;;;;;;;36.50;48.60;;;;;;5073090;28;19952;-87
2022/05/01 14:54:33;;;;;;;;;;;36.60;46.30;;;;;;5073366;28;19991;-87
2022/05/01 14:57:02;;;;;;;;;;;37.10;47.70;;;;;;5073148;28;19962;-87
2022/05/01 15:07:55;;;;;;;;;;;39.10;46.80;;;;;;5069405;28;19919;-87
2022/05/01 15:10:21;;;;;;;;;;;39.70;46.70;;;;;;5072753;28;19969;-87